sensor_id;sensor_type;location;lat;lon;timestamp;pressure;altitude;pressure_sealevel;temperature;humidity
71795;BME280;59641;45.188;5.712;2023-09-30T00:02:05;99958.66;;;25.35;47.16
71795;BME280;59641;45.188;5.712;2023-09-30T00:04:30;99961.41;;;25.35;47.16
71795;BME280;59641;45.188;5.712;2023-09-30T00:06:55;99954.56;;;25.32;47.20
71795;BME280;59641;45.188;5.712;2023-09-30T00:09:21;99964.16;;;25.35;47.19
71795;BME280;59641;45.188;5.712;2023-09-30T00:11:47;99960.88;;;25.33;47.33
71795;BME280;59641;45.188;5.712;2023-09-30T00:14:12;99956.22;;;25.33;47.39
71795;BME280;59641;45.188;5.712;2023-09-30T00:16:38;99956.81;;;25.30;47.47
71795;BME280;59641;45.188;5.712;2023-09-30T00:19:03;99946.44;;;25.27;47.46
71795;BME280;59641;45.188;5.712;2023-09-30T00:21:29;99954.38;;;25.28;47.25
71795;BME280;59641;45.188;5.712;2023-09-30T00:23:54;99951.94;;;25.27;47.57
71795;BME280;59641;45.188;5.712;2023-09-30T00:26:20;99947.88;;;25.24;47.31
71795;BME280;59641;45.188;5.712;2023-09-30T00:28:47;99950.09;;;25.22;47.44
71795;BME280;59641;45.188;5.712;2023-09-30T00:31:12;99947.66;;;25.21;47.43
71795;BME280;59641;45.188;5.712;2023-09-30T00:33:38;99950.72;;;25.19;47.43
71795;BME280;59641;45.188;5.712;2023-09-30T00:36:10;99953.47;;;25.19;47.65
71795;BME280;59641;45.188;5.712;2023-09-30T00:38:36;99948.25;;;25.18;47.81
71795;BME280;59641;45.188;5.712;2023-09-30T00:41:02;99938.16;;;25.13;47.74
71795;BME280;59641;45.188;5.712;2023-09-30T00:43:27;99951.59;;;25.15;47.68
71795;BME280;59641;45.188;5.712;2023-09-30T00:46:44;99947.22;;;25.14;47.52
71795;BME280;59641;45.188;5.712;2023-09-30T00:48:50;99952.78;;;25.08;47.84
71795;BME280;59641;45.188;5.712;2023-09-30T00:51:16;99958.59;;;25.07;48.00
71795;BME280;59641;45.188;5.712;2023-09-30T00:53:42;99946.28;;;25.04;47.90
71795;BME280;59641;45.188;5.712;2023-09-30T00:56:07;99950.97;;;25.04;48.00
71795;BME280;59641;45.188;5.712;2023-09-30T00:58:34;99936.22;;;25.00;47.88
71795;BME280;59641;45.188;5.712;2023-09-30T01:01:00;99945.88;;;24.97;47.98
71795;BME280;59641;45.188;5.712;2023-09-30T01:03:26;99946.16;;;24.96;47.98
71795;BME280;59641;45.188;5.712;2023-09-30T01:05:51;99945.63;;;24.94;48.14
71795;BME280;59641;45.188;5.712;2023-09-30T01:08:18;99945.34;;;24.95;48.24
71795;BME280;59641;45.188;5.712;2023-09-30T01:10:45;99944.00;;;24.93;48.36
71795;BME280;59641;45.188;5.712;2023-09-30T01:13:10;99945.97;;;24.92;48.39
71795;BME280;59641;45.188;5.712;2023-09-30T01:15:36;99944.00;;;24.93;48.40
71795;BME280;59641;45.188;5.712;2023-09-30T01:18:03;99942.97;;;24.88;48.42
71795;BME280;59641;45.188;5.712;2023-09-30T01:20:28;99943.59;;;24.85;48.59
71795;BME280;59641;45.188;5.712;2023-09-30T01:22:54;99949.38;;;24.84;48.82
71795;BME280;59641;45.188;5.712;2023-09-30T01:25:21;99958.72;;;24.83;48.67
71795;BME280;59641;45.188;5.712;2023-09-30T01:27:46;99961.25;;;24.79;48.77
71795;BME280;59641;45.188;5.712;2023-09-30T01:30:13;99954.44;;;24.77;48.72
71795;BME280;59641;45.188;5.712;2023-09-30T01:32:39;99959.41;;;24.75;48.95
71795;BME280;59641;45.188;5.712;2023-09-30T01:35:05;99945.19;;;24.73;48.89
71795;BME280;59641;45.188;5.712;2023-09-30T01:37:31;99959.19;;;24.71;48.77
71795;BME280;59641;45.188;5.712;2023-09-30T01:39:56;99958.69;;;24.69;49.01
71795;BME280;59641;45.188;5.712;2023-09-30T01:42:21;99953.28;;;24.64;49.18
71795;BME280;59641;45.188;5.712;2023-09-30T01:44:47;99959.06;;;24.62;48.80
71795;BME280;59641;45.188;5.712;2023-09-30T01:47:13;99962.13;;;24.61;49.07
71795;BME280;59641;45.188;5.712;2023-09-30T01:49:38;99955.31;;;24.58;49.05
71795;BME280;59641;45.188;5.712;2023-09-30T01:52:04;99950.31;;;24.60;49.16
71795;BME280;59641;45.188;5.712;2023-09-30T01:54:29;99954.97;;;24.60;49.59
71795;BME280;59641;45.188;5.712;2023-09-30T01:56:55;99949.81;;;24.58;49.42
71795;BME280;59641;45.188;5.712;2023-09-30T01:59:20;99945.75;;;24.56;49.29
71795;BME280;59641;45.188;5.712;2023-09-30T02:01:46;99955.34;;;24.53;49.19
71795;BME280;59641;45.188;5.712;2023-09-30T02:04:12;99961.44;;;24.50;49.38
71795;BME280;59641;45.188;5.712;2023-09-30T02:06:40;99962.84;;;24.48;49.65
71795;BME280;59641;45.188;5.712;2023-09-30T02:09:06;99959.56;;;24.45;49.61
71795;BME280;59641;45.188;5.712;2023-09-30T02:11:33;99954.91;;;24.46;49.53
71795;BME280;59641;45.188;5.712;2023-09-30T02:13:59;99959.56;;;24.45;49.66
71795;BME280;59641;45.188;5.712;2023-09-30T02:16:24;99959.56;;;24.45;49.46
71795;BME280;59641;45.188;5.712;2023-09-30T02:18:50;99959.88;;;24.44;49.56
71795;BME280;59641;45.188;5.712;2023-09-30T02:21:15;99958.22;;;24.43;49.45
71795;BME280;59641;45.188;5.712;2023-09-30T02:23:41;99963.72;;;24.43;49.71
71795;BME280;59641;45.188;5.712;2023-09-30T02:26:06;99955.28;;;24.39;49.85
71795;BME280;59641;45.188;5.712;2023-09-30T02:28:32;99958.84;;;24.40;49.76
71795;BME280;59641;45.188;5.712;2023-09-30T02:31:00;99950.09;;;24.38;49.57
71795;BME280;59641;45.188;5.712;2023-09-30T02:33:25;99945.13;;;24.40;49.80
71795;BME280;59641;45.188;5.712;2023-09-30T02:35:51;99947.34;;;24.38;49.66
71795;BME280;59641;45.188;5.712;2023-09-30T02:38:16;99953.34;;;24.40;49.47
71795;BME280;59641;45.188;5.712;2023-09-30T02:40:44;99948.66;;;24.40;49.62
71795;BME280;59641;45.188;5.712;2023-09-30T02:43:12;99944.84;;;24.41;49.64
71795;BME280;59641;45.188;5.712;2023-09-30T02:45:37;99944.50;;;24.43;49.54
71795;BME280;59641;45.188;5.712;2023-09-30T02:48:03;99942.28;;;24.45;49.61
71795;BME280;59641;45.188;5.712;2023-09-30T02:50:29;99947.53;;;24.47;49.46
71795;BME280;59641;45.188;5.712;2023-09-30T02:52:54;99941.19;;;24.46;49.28
71795;BME280;59641;45.188;5.712;2023-09-30T02:55:20;99943.94;;;24.46;49.46
71795;BME280;59641;45.188;5.712;2023-09-30T02:57:45;99942.84;;;24.47;49.42
71795;BME280;59641;45.188;5.712;2023-09-30T03:00:11;99948.34;;;24.47;49.73
71795;BME280;59641;45.188;5.712;2023-09-30T03:02:49;99958.69;;;24.50;49.64
71795;BME280;59641;45.188;5.712;2023-09-30T03:05:16;99955.16;;;24.50;49.80
71795;BME280;59641;45.188;5.712;2023-09-30T03:07:42;99954.63;;;24.48;49.77
71795;BME280;59641;45.188;5.712;2023-09-30T03:10:08;99951.06;;;24.47;49.86
71795;BME280;59641;45.188;5.712;2023-09-30T03:12:34;99950.53;;;24.45;49.83
71795;BME280;59641;45.188;5.712;2023-09-30T03:15:00;99947.25;;;24.43;49.90
71795;BME280;59641;45.188;5.712;2023-09-30T03:17:32;99955.81;;;24.41;49.77
71795;BME280;59641;45.188;5.712;2023-09-30T03:19:58;99955.50;;;24.43;49.87
71795;BME280;59641;45.188;5.712;2023-09-30T03:22:27;99955.81;;;24.41;50.00
71795;BME280;59641;45.188;5.712;2023-09-30T03:24:54;99966.78;;;24.41;50.14
71795;BME280;59641;45.188;5.712;2023-09-30T03:27:20;99963.78;;;24.38;49.97
71795;BME280;59641;45.188;5.712;2023-09-30T03:29:46;99963.00;;;24.37;50.35
71795;BME280;59641;45.188;5.712;2023-09-30T03:32:11;99959.19;;;24.33;50.19
71795;BME280;59641;45.188;5.712;2023-09-30T03:34:36;99963.59;;;24.34;50.10
71795;BME280;59641;45.188;5.712;2023-09-30T03:37:02;99959.81;;;24.30;50.46
71795;BME280;59641;45.188;5.712;2023-09-30T03:39:27;99960.91;;;24.29;50.24
71795;BME280;59641;45.188;5.712;2023-09-30T03:41:56;99957.13;;;24.25;50.45
71795;BME280;59641;45.188;5.712;2023-09-30T03:44:23;99952.53;;;24.20;50.48
71795;BME280;59641;45.188;5.712;2023-09-30T03:46:49;99950.09;;;24.19;50.51
71795;BME280;59641;45.188;5.712;2023-09-30T03:49:15;99963.28;;;24.17;50.53
71795;BME280;59641;45.188;5.712;2023-09-30T03:51:41;99972.38;;;24.12;50.59
71795;BME280;59641;45.188;5.712;2023-09-30T03:54:06;99978.19;;;24.11;50.59
71795;BME280;59641;45.188;5.712;2023-09-30T03:56:33;99977.94;;;24.07;50.78
71795;BME280;59641;45.188;5.712;2023-09-30T03:58:59;99986.47;;;24.06;50.74
71795;BME280;59641;45.188;5.712;2023-09-30T04:01:25;99990.31;;;24.05;50.87
71795;BME280;59641;45.188;5.712;2023-09-30T04:03:52;99989.78;;;24.02;50.97
71795;BME280;59641;45.188;5.712;2023-09-30T04:06:20;99985.41;;;24.01;51.04
71795;BME280;59641;45.188;5.712;2023-09-30T04:08:45;99977.19;;;24.01;51.07
71795;BME280;59641;45.188;5.712;2023-09-30T04:11:11;99975.25;;;24.02;50.83
71795;BME280;59641;45.188;5.712;2023-09-30T04:13:42;99969.25;;;24.00;51.10
71795;BME280;59641;45.188;5.712;2023-09-30T04:16:08;99975.59;;;24.00;50.72
71795;BME280;59641;45.188;5.712;2023-09-30T04:18:33;99976.16;;;23.97;50.99
71795;BME280;59641;45.188;5.712;2023-09-30T04:20:59;99970.13;;;23.95;51.07
71795;BME280;59641;45.188;5.712;2023-09-30T04:23:25;99982.75;;;23.96;50.72
71795;BME280;59641;45.188;5.712;2023-09-30T04:25:50;99972.66;;;23.92;51.26
71795;BME280;59641;45.188;5.712;2023-09-30T04:28:16;99978.16;;;23.92;51.28
71795;BME280;59641;45.188;5.712;2023-09-30T04:30:49;99977.34;;;23.91;51.41
71795;BME280;59641;45.188;5.712;2023-09-30T04:33:16;99985.63;;;23.86;51.17
71795;BME280;59641;45.188;5.712;2023-09-30T04:35:43;99987.31;;;23.82;51.33
71795;BME280;59641;45.188;5.712;2023-09-30T04:38:09;99979.44;;;23.75;51.12
71795;BME280;59641;45.188;5.712;2023-09-30T04:40:35;99978.06;;;23.73;51.44
71795;BME280;59641;45.188;5.712;2023-09-30T04:43:01;99980.28;;;23.71;51.60
71795;BME280;59641;45.188;5.712;2023-09-30T04:45:27;99976.72;;;23.70;51.50
71795;BME280;59641;45.188;5.712;2023-09-30T04:47:53;99973.19;;;23.70;51.55
71795;BME280;59641;45.188;5.712;2023-09-30T04:50:19;99980.28;;;23.71;51.73
71795;BME280;59641;45.188;5.712;2023-09-30T04:52:50;99975.34;;;23.73;51.65
71795;BME280;59641;45.188;5.712;2023-09-30T04:55:16;99971.50;;;23.74;51.35
71795;BME280;59641;45.188;5.712;2023-09-30T04:57:42;99975.63;;;23.71;51.42
71795;BME280;59641;45.188;5.712;2023-09-30T05:00:15;99973.19;;;23.70;51.59
71795;BME280;59641;45.188;5.712;2023-09-30T05:02:43;99980.88;;;23.68;51.57
71795;BME280;59641;45.188;5.712;2023-09-30T05:05:10;99978.94;;;23.68;51.55
71795;BME280;59641;45.188;5.712;2023-09-30T05:07:36;99976.50;;;23.67;51.78
71795;BME280;59641;45.188;5.712;2023-09-30T05:10:02;99979.81;;;23.64;51.75
71795;BME280;59641;45.188;5.712;2023-09-30T05:12:31;99980.94;;;23.63;51.79
71795;BME280;59641;45.188;5.712;2023-09-30T05:14:56;99988.34;;;23.62;51.96
71795;BME280;59641;45.188;5.712;2023-09-30T05:17:22;99987.50;;;23.61;51.77
71795;BME280;59641;45.188;5.712;2023-09-30T05:19:48;99992.50;;;23.59;51.91
71795;BME280;59641;45.188;5.712;2023-09-30T05:22:13;100000.44;;;23.56;51.89
71795;BME280;59641;45.188;5.712;2023-09-30T05:24:38;100004.00;;;23.56;51.69
71795;BME280;59641;45.188;5.712;2023-09-30T05:27:04;100009.47;;;23.56;51.84
71795;BME280;59641;45.188;5.712;2023-09-30T05:29:29;100005.94;;;23.56;51.89
71795;BME280;59641;45.188;5.712;2023-09-30T05:31:58;100008.94;;;23.54;51.75
71795;BME280;59641;45.188;5.712;2023-09-30T05:34:23;100012.53;;;23.55;51.85
71795;BME280;59641;45.188;5.712;2023-09-30T05:36:49;100004.31;;;23.55;51.77
71795;BME280;59641;45.188;5.712;2023-09-30T05:39:16;100006.22;;;23.54;51.83
71795;BME280;59641;45.188;5.712;2023-09-30T05:41:45;100021.56;;;23.55;51.83
71795;BME280;59641;45.188;5.712;2023-09-30T05:44:12;100018.56;;;23.52;51.72
71795;BME280;59641;45.188;5.712;2023-09-30T05:46:39;100026.50;;;23.53;51.78
71795;BME280;59641;45.188;5.712;2023-09-30T05:49:04;100025.38;;;23.54;51.91
71795;BME280;59641;45.188;5.712;2023-09-30T05:51:35;100027.09;;;23.50;51.91
71795;BME280;59641;45.188;5.712;2023-09-30T05:54:00;100029.84;;;23.50;51.73
71795;BME280;59641;45.188;5.712;2023-09-30T05:56:25;100031.22;;;23.48;52.09
71795;BME280;59641;45.188;5.712;2023-09-30T05:58:52;100028.78;;;23.46;52.06
71795;BME280;59641;45.188;5.712;2023-09-30T06:01:17;100032.63;;;23.45;52.13
71795;BME280;59641;45.188;5.712;2023-09-30T06:03:45;100032.09;;;23.43;52.38
71795;BME280;59641;45.188;5.712;2023-09-30T06:06:15;100032.91;;;23.44;52.30
71795;BME280;59641;45.188;5.712;2023-09-30T06:08:42;100039.72;;;23.46;52.02
71795;BME280;59641;45.188;5.712;2023-09-30T06:11:21;100041.06;;;23.49;52.25
71795;BME280;59641;45.188;5.712;2023-09-30T06:13:52;100031.22;;;23.48;51.97
71795;BME280;59641;45.188;5.712;2023-09-30T06:16:18;100039.72;;;23.46;52.34
71795;BME280;59641;45.188;5.712;2023-09-30T06:18:44;100037.78;;;23.47;52.25
71795;BME280;59641;45.188;5.712;2023-09-30T06:21:10;100036.19;;;23.46;52.33
71795;BME280;59641;45.188;5.712;2023-09-30T06:23:36;100028.50;;;23.43;52.18
71795;BME280;59641;45.188;5.712;2023-09-30T06:26:01;100040.84;;;23.45;52.27
71795;BME280;59641;45.188;5.712;2023-09-30T06:28:28;100043.84;;;23.44;52.43
71795;BME280;59641;45.188;5.712;2023-09-30T06:30:56;100049.88;;;23.46;52.21
71795;BME280;59641;45.188;5.712;2023-09-30T06:33:22;100054.00;;;23.43;52.31
71795;BME280;59641;45.188;5.712;2023-09-30T06:35:47;100052.06;;;23.44;52.47
71795;BME280;59641;45.188;5.712;2023-09-30T06:38:19;100052.59;;;23.46;52.55
71795;BME280;59641;45.188;5.712;2023-09-30T06:40:45;100044.41;;;23.46;52.27
71795;BME280;59641;45.188;5.712;2023-09-30T06:43:14;100040.84;;;23.45;52.33
71795;BME280;59641;45.188;5.712;2023-09-30T06:45:43;100052.59;;;23.46;52.26
71795;BME280;59641;45.188;5.712;2023-09-30T06:48:10;100047.66;;;23.48;52.54
71795;BME280;59641;45.188;5.712;2023-09-30T06:50:40;100045.44;;;23.50;52.54
71795;BME280;59641;45.188;5.712;2023-09-30T06:53:06;100047.06;;;23.51;52.55
71795;BME280;59641;45.188;5.712;2023-09-30T06:55:31;100050.88;;;23.55;52.56
71795;BME280;59641;45.188;5.712;2023-09-30T06:57:57;100057.16;;;23.55;52.56
71795;BME280;59641;45.188;5.712;2023-09-30T07:00:22;100052.22;;;23.57;52.50
71795;BME280;59641;45.188;5.712;2023-09-30T07:02:48;100059.59;;;23.57;52.21
71795;BME280;59641;45.188;5.712;2023-09-30T07:05:14;100061.78;;;23.60;52.32
71795;BME280;59641;45.188;5.712;2023-09-30T07:07:41;100073.28;;;23.62;52.39
71795;BME280;59641;45.188;5.712;2023-09-30T07:10:08;100076.81;;;23.63;52.31
71795;BME280;59641;45.188;5.712;2023-09-30T07:12:34;100072.16;;;23.63;52.44
71795;BME280;59641;45.188;5.712;2023-09-30T07:15:04;100084.97;;;23.68;52.34
71795;BME280;59641;45.188;5.712;2023-09-30T07:17:30;100080.03;;;23.70;52.31
71795;BME280;59641;45.188;5.712;2023-09-30T07:19:56;100089.66;;;23.67;52.45
71795;BME280;59641;45.188;5.712;2023-09-30T07:22:22;100089.41;;;23.64;52.50
71795;BME280;59641;45.188;5.712;2023-09-30T07:24:47;100081.19;;;23.64;52.68
71795;BME280;59641;45.188;5.712;2023-09-30T07:27:13;100089.41;;;23.64;52.58
71795;BME280;59641;45.188;5.712;2023-09-30T07:29:38;100098.44;;;23.64;52.75
71795;BME280;59641;45.188;5.712;2023-09-30T07:32:03;100097.34;;;23.65;52.71
71795;BME280;59641;45.188;5.712;2023-09-30T07:34:29;100096.47;;;23.70;52.51
71795;BME280;59641;45.188;5.712;2023-09-30T07:36:55;100102.78;;;23.70;52.56
71795;BME280;59641;45.188;5.712;2023-09-30T07:39:20;100091.00;;;23.70;52.40
71795;BME280;59641;45.188;5.712;2023-09-30T07:41:46;100093.44;;;23.71;52.58
71795;BME280;59641;45.188;5.712;2023-09-30T07:44:11;100088.22;;;23.75;52.49
71795;BME280;59641;45.188;5.712;2023-09-30T07:46:37;100090.69;;;23.76;52.64
71795;BME280;59641;45.188;5.712;2023-09-30T07:49:02;100102.16;;;23.78;52.78
71795;BME280;59641;45.188;5.712;2023-09-30T07:51:28;100094.47;;;23.80;52.52
71795;BME280;59641;45.188;5.712;2023-09-30T07:53:55;100093.38;;;23.81;52.42
71795;BME280;59641;45.188;5.712;2023-09-30T07:56:20;100097.75;;;23.83;52.62
71795;BME280;59641;45.188;5.712;2023-09-30T07:58:48;100100.72;;;23.86;52.43
71795;BME280;59641;45.188;5.712;2023-09-30T08:01:13;100104.81;;;23.89;52.35
71795;BME280;59641;45.188;5.712;2023-09-30T08:03:40;100099.56;;;23.92;52.32
71795;BME280;59641;45.188;5.712;2023-09-30T08:06:07;100091.84;;;23.94;52.29
71795;BME280;59641;45.188;5.712;2023-09-30T08:08:34;100087.50;;;23.93;52.35
71795;BME280;59641;45.188;5.712;2023-09-30T08:11:00;100095.66;;;23.98;52.46
71795;BME280;59641;45.188;5.712;2023-09-30T08:13:25;100100.03;;;23.99;52.40
71795;BME280;59641;45.188;5.712;2023-09-30T08:15:51;100093.72;;;23.99;52.17
71795;BME280;59641;45.188;5.712;2023-09-30T08:18:17;100096.19;;;24.00;52.17
71795;BME280;59641;45.188;5.712;2023-09-30T08:20:42;100096.69;;;24.02;52.22
71795;BME280;59641;45.188;5.712;2023-09-30T08:23:08;100099.16;;;24.04;52.43
71795;BME280;59641;45.188;5.712;2023-09-30T08:25:33;100098.56;;;24.07;52.35
71795;BME280;59641;45.188;5.712;2023-09-30T08:27:58;100093.06;;;24.07;52.23
71795;BME280;59641;45.188;5.712;2023-09-30T08:30:24;100091.38;;;24.11;52.05
71795;BME280;59641;45.188;5.712;2023-09-30T08:32:49;100089.47;;;24.12;52.10
71795;BME280;59641;45.188;5.712;2023-09-30T08:35:15;100095.72;;;24.17;52.10
71795;BME280;59641;45.188;5.712;2023-09-30T08:37:40;100075.47;;;24.13;52.12
71795;BME280;59641;45.188;5.712;2023-09-30T08:40:07;100083.84;;;24.22;52.06
71795;BME280;59641;45.188;5.712;2023-09-30T08:42:35;100078.88;;;24.24;51.99
71795;BME280;59641;45.188;5.712;2023-09-30T08:45:01;100073.94;;;24.26;51.54
71795;BME280;59641;45.188;5.712;2023-09-30T08:47:27;100076.66;;;24.26;51.17
71795;BME280;59641;45.188;5.712;2023-09-30T08:49:54;100090.38;;;24.26;51.40
71795;BME280;59641;45.188;5.712;2023-09-30T08:52:23;100088.44;;;24.27;51.49
71795;BME280;59641;45.188;5.712;2023-09-30T08:54:48;100086.84;;;24.26;51.41
71795;BME280;59641;45.188;5.712;2023-09-30T08:57:15;100086.03;;;24.25;51.71
71795;BME280;59641;45.188;5.712;2023-09-30T08:59:43;100091.72;;;24.29;51.74
71795;BME280;59641;45.188;5.712;2023-09-30T09:02:10;100089.50;;;24.31;51.79
71795;BME280;59641;45.188;5.712;2023-09-30T09:04:38;100083.75;;;24.32;51.46
71795;BME280;59641;45.188;5.712;2023-09-30T09:07:03;100088.34;;;24.37;51.42
71795;BME280;59641;45.188;5.712;2023-09-30T09:09:29;100089.38;;;24.41;51.16
71795;BME280;59641;45.188;5.712;2023-09-30T09:11:54;100079.22;;;24.41;51.49
71795;BME280;59641;45.188;5.712;2023-09-30T09:14:36;100083.31;;;24.44;51.29
71795;BME280;59641;45.188;5.712;2023-09-30T09:17:02;100075.91;;;24.44;51.22
71795;BME280;59641;45.188;5.712;2023-09-30T09:19:29;100083.00;;;24.45;50.87
71795;BME280;59641;45.188;5.712;2023-09-30T09:21:57;100084.13;;;24.44;50.93
71795;BME280;59641;45.188;5.712;2023-09-30T09:24:37;100079.19;;;24.47;50.96
71795;BME280;59641;45.188;5.712;2023-09-30T09:27:12;100082.47;;;24.43;50.70
71795;BME280;59641;45.188;5.712;2023-09-30T09:29:39;100082.19;;;24.45;50.71
71795;BME280;59641;45.188;5.712;2023-09-30T09:32:14;100083.00;;;24.45;51.04
71795;BME280;59641;45.188;5.712;2023-09-30T09:34:42;100082.75;;;24.47;50.79
71795;BME280;59641;45.188;5.712;2023-09-30T09:37:19;100081.88;;;24.52;50.57
71795;BME280;59641;45.188;5.712;2023-09-30T09:39:57;100074.78;;;24.45;50.12
71795;BME280;59641;45.188;5.712;2023-09-30T09:42:31;100074.25;;;24.43;50.00
71795;BME280;59641;45.188;5.712;2023-09-30T09:44:59;100072.34;;;24.44;50.45
71795;BME280;59641;45.188;5.712;2023-09-30T09:47:24;100070.97;;;24.47;50.42
71795;BME280;59641;45.188;5.712;2023-09-30T09:49:51;100069.03;;;24.47;50.00
71795;BME280;59641;45.188;5.712;2023-09-30T09:52:18;100077.47;;;24.51;50.14
71795;BME280;59641;45.188;5.712;2023-09-30T09:54:45;100068.44;;;24.50;50.47
71795;BME280;59641;45.188;5.712;2023-09-30T09:57:11;100073.63;;;24.52;50.35
71795;BME280;59641;45.188;5.712;2023-09-30T09:59:38;100062.66;;;24.52;50.84
71795;BME280;59641;45.188;5.712;2023-09-30T10:02:10;100065.63;;;24.55;50.93
71795;BME280;59641;45.188;5.712;2023-09-30T10:04:37;100063.41;;;24.57;50.49
71795;BME280;59641;45.188;5.712;2023-09-30T10:07:05;100063.31;;;24.62;50.35
71795;BME280;59641;45.188;5.712;2023-09-30T10:09:34;100057.03;;;24.62;50.42
71795;BME280;59641;45.188;5.712;2023-09-30T10:12:03;100058.81;;;24.72;50.45
71795;BME280;59641;45.188;5.712;2023-09-30T10:14:31;100048.88;;;24.76;50.51
71795;BME280;59641;45.188;5.712;2023-09-30T10:17:01;100050.72;;;24.80;50.30
71795;BME280;59641;45.188;5.712;2023-09-30T10:19:28;100050.34;;;24.87;49.99
71795;BME280;59641;45.188;5.712;2023-09-30T10:24:48;100051.28;;;24.96;49.95
71795;BME280;59641;45.188;5.712;2023-09-30T10:30:08;100048.97;;;25.03;47.94
71795;BME280;59641;45.188;5.712;2023-09-30T10:40:51;100036.19;;;25.32;45.88
71795;BME280;59641;45.188;5.712;2023-09-30T10:43:32;100037.91;;;25.41;44.78
71795;BME280;59641;45.188;5.712;2023-09-30T10:46:01;100038.16;;;25.45;44.85
71795;BME280;59641;45.188;5.712;2023-09-30T10:51:17;100026.16;;;25.55;44.57
71795;BME280;59641;45.188;5.712;2023-09-30T10:53:53;100022.97;;;25.61;43.52
71795;BME280;59641;45.188;5.712;2023-09-30T10:56:22;100021.25;;;25.65;43.54
71795;BME280;59641;45.188;5.712;2023-09-30T10:58:50;100018.41;;;25.70;43.06
71795;BME280;59641;45.188;5.712;2023-09-30T11:01:20;100023.00;;;25.75;43.47
71795;BME280;59641;45.188;5.712;2023-09-30T11:03:47;100018.19;;;25.81;42.58
71795;BME280;59641;45.188;5.712;2023-09-30T11:06:15;100013.47;;;25.86;43.16
71795;BME280;59641;45.188;5.712;2023-09-30T11:08:54;100006.44;;;25.94;42.72
71795;BME280;59641;45.188;5.712;2023-09-30T11:11:40;100010.72;;;26.00;42.73
71795;BME280;59641;45.188;5.712;2023-09-30T11:14:27;100010.09;;;26.03;42.41
71795;BME280;59641;45.188;5.712;2023-09-30T11:16:56;100003.97;;;26.06;42.22
71795;BME280;59641;45.188;5.712;2023-09-30T11:19:22;100007.75;;;26.10;41.51
71795;BME280;59641;45.188;5.712;2023-09-30T11:21:49;100000.50;;;26.14;41.39
71795;BME280;59641;45.188;5.712;2023-09-30T11:24:16;100000.06;;;26.21;41.91
71795;BME280;59641;45.188;5.712;2023-09-30T11:26:42;100003.53;;;26.27;41.52
71795;BME280;59641;45.188;5.712;2023-09-30T11:29:13;100001.47;;;26.32;40.98
71795;BME280;59641;45.188;5.712;2023-09-30T11:31:43;100000.84;;;26.35;41.65
71795;BME280;59641;45.188;5.712;2023-09-30T11:34:09;99996.38;;;26.40;41.20
71795;BME280;59641;45.188;5.712;2023-09-30T11:36:47;99993.31;;;26.41;40.92
71795;BME280;59641;45.188;5.712;2023-09-30T11:39:25;99981.69;;;26.44;41.40
71795;BME280;59641;45.188;5.712;2023-09-30T11:41:51;99991.03;;;26.43;41.33
71795;BME280;59641;45.188;5.712;2023-09-30T11:44:17;99990.75;;;26.45;41.54
71795;BME280;59641;45.188;5.712;2023-09-30T11:46:57;99980.03;;;26.43;41.02
71795;BME280;59641;45.188;5.712;2023-09-30T11:52:03;99974.53;;;26.43;40.14
71795;BME280;59641;45.188;5.712;2023-09-30T11:54:33;99979.09;;;26.48;40.78
71795;BME280;59641;45.188;5.712;2023-09-30T11:57:00;99970.03;;;26.47;40.63
71795;BME280;59641;45.188;5.712;2023-09-30T11:59:26;99967.28;;;26.47;40.49
71795;BME280;59641;45.188;5.712;2023-09-30T12:01:52;99970.25;;;26.51;40.57
71795;BME280;59641;45.188;5.712;2023-09-30T12:04:18;99963.59;;;26.52;40.49
71795;BME280;59641;45.188;5.712;2023-09-30T12:06:45;99968.84;;;26.53;40.82
71795;BME280;59641;45.188;5.712;2023-09-30T12:09:12;99960.03;;;26.51;40.70
71795;BME280;59641;45.188;5.712;2023-09-30T12:11:41;99961.16;;;26.50;40.80
71795;BME280;59641;45.188;5.712;2023-09-30T12:14:12;99959.25;;;26.51;40.53
71795;BME280;59641;45.188;5.712;2023-09-30T12:16:38;99952.91;;;26.50;40.49
71795;BME280;59641;45.188;5.712;2023-09-30T12:19:04;99953.75;;;26.51;40.33
71795;BME280;59641;45.188;5.712;2023-09-30T12:21:33;99952.91;;;26.50;40.71
71795;BME280;59641;45.188;5.712;2023-09-30T12:24:00;99955.19;;;26.48;40.25
71795;BME280;59641;45.188;5.712;2023-09-30T12:26:27;99944.47;;;26.47;40.29
71795;BME280;59641;45.188;5.712;2023-09-30T12:28:52;99945.28;;;26.47;40.61
71795;BME280;59641;45.188;5.712;2023-09-30T12:31:18;99944.16;;;26.48;40.11
71795;BME280;59641;45.188;5.712;2023-09-30T12:33:45;99945.47;;;26.51;40.16
71795;BME280;59641;45.188;5.712;2023-09-30T12:36:15;99945.78;;;26.49;40.41
71795;BME280;59641;45.188;5.712;2023-09-30T12:38:40;99937.03;;;26.47;40.05
71795;BME280;59641;45.188;5.712;2023-09-30T12:41:06;99947.09;;;26.52;40.66
71795;BME280;59641;45.188;5.712;2023-09-30T12:43:31;99949.56;;;26.53;40.28
71795;BME280;59641;45.188;5.712;2023-09-30T12:45:56;99945.97;;;26.53;40.52
71795;BME280;59641;45.188;5.712;2023-09-30T12:48:22;99949.75;;;26.57;40.04
71795;BME280;59641;45.188;5.712;2023-09-30T12:50:47;99949.75;;;26.57;39.78
71795;BME280;59641;45.188;5.712;2023-09-30T12:53:13;99946.69;;;26.59;39.95
71795;BME280;59641;45.188;5.712;2023-09-30T12:55:39;99943.44;;;26.56;40.35
71795;BME280;59641;45.188;5.712;2023-09-30T12:58:04;99950.56;;;26.58;39.51
71795;BME280;59641;45.188;5.712;2023-09-30T13:00:31;99944.88;;;26.54;40.35
71795;BME280;59641;45.188;5.712;2023-09-30T13:03:00;99935.47;;;26.55;39.94
71795;BME280;59641;45.188;5.712;2023-09-30T13:05:25;99934.69;;;26.54;40.11
71795;BME280;59641;45.188;5.712;2023-09-30T13:07:50;99933.25;;;26.57;40.27
71795;BME280;59641;45.188;5.712;2023-09-30T13:10:18;99934.03;;;26.58;40.34
71795;BME280;59641;45.188;5.712;2023-09-30T13:12:44;99936.19;;;26.61;40.56
71795;BME280;59641;45.188;5.712;2023-09-30T13:15:09;99935.88;;;26.62;40.25